Time,TemperatureF,DewpointF,PressureIn,WindDirection,WindDirectionDegrees,WindSpeedMPH,WindSpeedGustMPH,Humidity,HourlyPrecipIn,Conditions,Clouds,dailyrainin,SoftwareType,DateUTC
2013-07-25 00:00:00,68.2,62.8,29.80,SSE,161,0.0,3.0,83,0.00,RA,,0.00,WeatherDisplay:10.37,2013-07-25 04:00:00,
2013-07-25 00:05:00,68.2,62.8,29.80,SW,225,0.0,1.0,83,0.00,RA,,0.00,WeatherDisplay:10.37,2013-07-25 04:05:00,
2013-07-25 00:10:00,68.2,62.5,29.80,SSE,153,0.0,3.0,82,0.00,CLR,,0.00,WeatherDisplay:10.37,2013-07-25 04:10:00,
2013-07-25 00:15:00,68.0,62.3,29.80,SSE,152,0.0,2.0,82,0.00,CLR,,0.00,WeatherDisplay:10.37,2013-07-25 04:15:00,
2013-07-25 00:20:00,68.0,62.3,29.80,SSW,213,0.0,0.0,82,0.00,CLR,,0.00,WeatherDisplay:10.37,2013-07-25 04:20:00,
2013-07-25 00:25:00,68.0,62.3,29.80,ENE,67,0.0,2.0,82,0.00,CLR,,0.00,WeatherDisplay:10.37,2013-07-25 04:25:00,
2013-07-25 00:30:00,67.8,62.1,29.80,East,79,0.0,2.0,82,0.00,CLR,,0.00,WeatherDisplay:10.37,2013-07-25 04:30:00,
2013-07-25 00:35:00,67.8,62.1,29.80,SSE,151,1.0,1.0,82,0.00,CLR,,0.00,WeatherDisplay:10.37,2013-07-25 04:35:00,
2013-07-25 00:40:00,67.8,62.1,29.80,SSW,193,0.0,1.0,82,0.00,CLR,,0.00,WeatherDisplay:10.37,2013-07-25 04:40:00,
2013-07-25 00:45:00,67.7,62.0,29.80,SSE,160,0.0,0.0,82,0.00,CLR,,0.00,WeatherDisplay:10.37,2013-07-25 04:45:00,
2013-07-25 00:50:00,67.6,61.9,29.80,SSW,212,0.0,0.0,82,0.00,CLR,,0.00,WeatherDisplay:10.37,2013-07-25 04:50:00,
2013-07-25 00:55:00,67.6,62.3,29.82,SW,215,0.0,1.0,83,0.00,CLR,,0.00,WeatherDisplay:10.37,2013-07-25 04:55:00,
2013-07-25 01:00:00,67.6,62.3,29.83,SSW,213,0.0,0.0,83,0.00,CLR,,0.00,WeatherDisplay:10.37,2013-07-25 05:00:00,
2013-07-25 01:05:00,67.6,62.3,29.83,South,188,0.0,0.0,83,0.00,CLR,,0.00,WeatherDisplay:10.37,2013-07-25 05:05:00,
2013-07-25 01:10:00,67.5,61.8,29.83,SSE,168,0.0,0.0,82,0.00,CLR,,0.00,WeatherDisplay:10.37,2013-07-25 05:10:00,
2013-07-25 01:15:00,67.5,61.8,29.83,SSE,151,0.0,0.0,82,0.00,CLR,,0.00,WeatherDisplay:10.37,2013-07-25 05:15:00,
2013-07-25 01:20:00,67.5,62.1,29.83,South,170,0.0,0.0,83,0.00,CLR,,0.00,WeatherDisplay:10.37,2013-07-25 05:20:00,
2013-07-25 01:25:00,67.5,62.1,29.83,SE,130,0.0,0.0,83,0.00,CLR,,0.00,WeatherDisplay:10.37,2013-07-25 05:25:00,
2013-07-25 01:30:00,67.5,62.1,29.83,ESE,105,0.0,1.0,83,0.00,CLR,,0.00,WeatherDisplay:10.37,2013-07-25 05:30:00,
2013-07-25 01:35:00,67.3,61.6,29.83,ESE,103,0.0,0.0,82,0.00,CLR,,0.00,WeatherDisplay:10.37,2013-07-25 05:35:00,
2013-07-25 01:40:00,67.3,61.6,29.81,South,171,0.0,1.0,82,0.00,CLR,,0.00,WeatherDisplay:10.37,2013-07-25 05:40:00,
2013-07-25 01:45:00,67.3,61.6,29.80,South,174,0.0,0.0,82,0.00,CLR,,0.00,WeatherDisplay:10.37,2013-07-25 05:45:00,
2013-07-25 01:50:00,67.1,61.4,29.80,SSE,151,0.0,1.0,82,0.00,CLR,,0.00,WeatherDisplay:10.37,2013-07-25 05:50:00,
2013-07-25 01:55:00,67.1,61.4,29.82,SE,133,0.0,1.0,82,0.00,CLR,,0.00,WeatherDisplay:10.37,2013-07-25 05:55:00,
2013-07-25 02:00:00,67.1,61.4,29.83,SSE,153,0.0,1.0,82,0.00,CLR,,0.00,WeatherDisplay:10.37,2013-07-25 06:00:00,
2013-07-25 02:05:00,67.1,61.4,29.83,SSE,167,0.0,0.0,82,0.00,CLR,,0.00,WeatherDisplay:10.37,2013-07-25 06:05:00,
2013-07-25 02:10:00,66.9,61.2,29.83,SE,141,0.0,2.0,82,0.00,CLR,,0.00,WeatherDisplay:10.37,2013-07-25 06:10:00,
2013-07-25 02:15:00,66.9,61.2,29.83,SE,146,3.0,4.0,82,0.00,CLR,,0.00,WeatherDisplay:10.37,2013-07-25 06:15:00,
2013-07-25 02:20:00,66.9,61.2,29.83,SSE,164,0.0,1.0,82,0.00,CLR,,0.00,WeatherDisplay:10.37,2013-07-25 06:20:00,
2013-07-25 02:30:00,66.7,61.1,29.83,East,101,0.0,1.0,82,0.00,CLR,,0.00,WeatherDisplay:10.37,2013-07-25 06:30:00,
2013-07-25 02:35:00,66.7,61.1,29.83,South,176,1.0,2.0,82,0.00,CLR,,0.00,WeatherDisplay:10.37,2013-07-25 06:35:00,
2013-07-25 02:40:00,66.7,61.1,29.83,South,183,0.0,2.0,82,0.00,CLR,,0.00,WeatherDisplay:10.37,2013-07-25 06:40:00,
2013-07-25 02:45:00,66.6,60.5,29.83,ENE,64,0.0,2.0,81,0.00,CLR,,0.00,WeatherDisplay:10.37,2013-07-25 06:45:00,
2013-07-25 02:50:00,66.6,60.5,29.83,NE,52,1.0,3.0,81,0.00,CLR,,0.00,WeatherDisplay:10.37,2013-07-25 06:50:00,
2013-07-25 02:55:00,66.4,60.4,29.83,ENE,58,1.0,3.0,81,0.00,CLR,,0.00,WeatherDisplay:10.37,2013-07-25 06:55:00,
2013-07-25 03:00:00,66.4,60.4,29.83,ESE,112,1.0,2.0,81,0.00,CLR,,0.00,WeatherDisplay:10.37,2013-07-25 07:00:00,
2013-07-25 03:05:00,66.4,60.3,29.83,WSW,238,0.0,1.0,81,0.00,CLR,,0.00,WeatherDisplay:10.37,2013-07-25 07:05:00,
2013-07-25 03:10:00,66.2,60.2,29.83,NE,42,0.0,2.0,81,0.00,CLR,,0.00,WeatherDisplay:10.37,2013-07-25 07:10:00,
2013-07-25 03:20:00,66.0,60.4,29.83,NNE,24,1.0,2.0,82,0.00,CLR,,0.00,WeatherDisplay:10.37,2013-07-25 07:20:00,
2013-07-25 03:25:00,66.0,60.4,29.83,NNE,29,0.0,2.0,82,0.00,CLR,,0.00,WeatherDisplay:10.37,2013-07-25 07:25:00,
2013-07-25 03:30:00,65.8,60.2,29.83,SW,223,0.0,2.0,82,0.00,CLR,,0.00,WeatherDisplay:10.37,2013-07-25 07:30:00,
2013-07-25 03:35:00,65.8,59.8,29.83,West,265,2.0,2.0,81,0.00,CLR,,0.00,WeatherDisplay:10.37,2013-07-25 07:35:00,
2013-07-25 03:40:00,65.7,59.7,29.83,North,355,1.0,2.0,81,0.00,CLR,,0.00,WeatherDisplay:10.37,2013-07-25 07:40:00,
2013-07-25 03:50:00,65.5,59.5,29.83,NNE,25,1.0,1.0,81,0.00,CLR,,0.00,WeatherDisplay:10.37,2013-07-25 07:50:00,
2013-07-25 03:55:00,65.4,59.4,29.83,NNE,17,2.0,2.0,81,0.00,CLR,,0.00,WeatherDisplay:10.37,2013-07-25 07:55:00,
2013-07-25 04:00:00,65.1,59.1,29.83,NE,50,1.0,2.0,81,0.00,CLR,,0.00,WeatherDisplay:10.37,2013-07-25 08:00:00,
2013-07-25 04:05:00,64.9,58.6,29.83,NNE,18,0.0,2.0,80,0.00,CLR,,0.00,WeatherDisplay:10.37,2013-07-25 08:05:00,
2013-07-25 04:15:00,64.6,58.3,29.83,ENE,57,1.0,2.0,80,0.00,CLR,,0.00,WeatherDisplay:10.37,2013-07-25 08:15:00,
2013-07-25 04:20:00,64.4,58.1,29.83,NE,42,0.0,3.0,80,0.00,CLR,,0.00,WeatherDisplay:10.37,2013-07-25 08:20:00,
2013-07-25 04:25:00,64.3,58.0,29.84,ESE,103,0.0,2.0,80,0.00,CLR,,0.00,WeatherDisplay:10.37,2013-07-25 08:25:00,
2013-07-25 04:30:00,64.2,57.9,29.85,ENE,73,0.0,1.0,80,0.00,CLR,,0.00,WeatherDisplay:10.37,2013-07-25 08:30:00,
2013-07-25 04:40:00,63.9,57.2,29.85,NNW,341,0.0,2.0,79,0.00,CLR,,0.00,WeatherDisplay:10.37,2013-07-25 08:40:00,
2013-07-25 04:45:00,63.9,57.2,29.85,NNE,33,1.0,2.0,79,0.00,CLR,,0.00,WeatherDisplay:10.37,2013-07-25 08:45:00,
2013-07-25 04:50:00,63.7,57.0,29.85,ENE,70,0.0,2.0,79,0.00,CLR,,0.00,WeatherDisplay:10.37,2013-07-25 08:50:00,
2013-07-25 04:55:00,63.5,56.9,29.85,NNE,30,0.0,2.0,79,0.00,CLR,,0.00,WeatherDisplay:10.37,2013-07-25 08:55:00,
2013-07-25 05:00:00,63.4,56.8,29.85,NW,319,2.0,3.0,79,0.00,CLR,,0.00,WeatherDisplay:10.37,2013-07-25 09:00:00,
2013-07-25 05:05:00,63.3,56.7,29.85,ENE,76,2.0,3.0,79,0.00,CLR,,0.00,WeatherDisplay:10.37,2013-07-25 09:05:00,
2013-07-25 05:10:00,63.1,56.2,29.85,East,93,1.0,3.0,78,0.00,CLR,,0.00,WeatherDisplay:10.37,2013-07-25 09:10:00,
2013-07-25 05:15:00,63.1,56.2,29.85,NW,326,1.0,2.0,78,0.00,CLR,,0.00,WeatherDisplay:10.37,2013-07-25 09:15:00,
2013-07-25 05:20:00,63.0,56.0,29.85,West,263,1.0,1.0,78,0.00,CLR,,0.00,WeatherDisplay:10.37,2013-07-25 09:20:00,
2013-07-25 05:25:00,63.0,56.0,29.85,NW,304,1.0,2.0,78,0.00,CLR,,0.00,WeatherDisplay:10.37,2013-07-25 09:25:00,
2013-07-25 05:30:00,62.9,55.9,29.85,NNE,13,1.0,2.0,78,0.00,CLR,,0.00,WeatherDisplay:10.37,2013-07-25 09:30:00,
2013-07-25 05:40:00,62.8,55.8,29.87,East,97,0.0,2.0,78,0.00,CLR,,0.00,WeatherDisplay:10.37,2013-07-25 09:40:00,
2013-07-25 05:45:00,62.6,55.6,29.88,NNE,15,0.0,2.0,78,0.00,CLR,,0.00,WeatherDisplay:10.37,2013-07-25 09:45:00,
2013-07-25 05:50:00,62.6,55.6,29.88,NNW,338,0.0,2.0,78,0.00,CLR,,0.00,WeatherDisplay:10.37,2013-07-25 09:50:00,
2013-07-25 05:55:00,62.6,55.6,29.87,East,89,1.0,2.0,78,0.00,CLR,,0.00,WeatherDisplay:10.37,2013-07-25 09:55:00,
2013-07-25 06:00:00,62.4,55.8,29.85,ENE,60,1.0,2.0,79,0.00,CLR,,0.00,WeatherDisplay:10.37,2013-07-25 10:00:00,
2013-07-25 06:05:00,62.4,55.5,29.85,NE,45,0.0,2.0,78,0.00,CLR,,0.00,WeatherDisplay:10.37,2013-07-25 10:05:00,
2013-07-25 06:10:00,62.4,55.5,29.87,NE,36,0.0,1.0,78,0.00,CLR,,0.00,WeatherDisplay:10.37,2013-07-25 10:10:00,
2013-07-25 06:15:00,62.2,55.3,29.88,ENE,77,1.0,2.0,78,0.00,CLR,,0.00,WeatherDisplay:10.37,2013-07-25 10:15:00,
2013-07-25 06:20:00,62.2,55.3,29.88,East,101,0.0,2.0,78,0.00,CLR,,0.00,WeatherDisplay:10.37,2013-07-25 10:20:00,
2013-07-25 06:25:00,62.2,55.3,29.88,SSE,148,1.0,1.0,78,0.00,CLR,,0.00,WeatherDisplay:10.37,2013-07-25 10:25:00,
2013-07-25 06:30:00,62.2,55.3,29.88,North,353,0.0,1.0,78,0.00,CLR,,0.00,WeatherDisplay:10.37,2013-07-25 10:30:00,
2013-07-25 06:35:00,62.2,55.3,29.88,ESE,108,0.0,1.0,78,0.00,CLR,,0.00,WeatherDisplay:10.37,2013-07-25 10:35:00,
2013-07-25 06:40:00,62.2,55.6,29.88,SE,129,0.0,0.0,79,0.00,CLR,,0.00,WeatherDisplay:10.37,2013-07-25 10:40:00,
2013-07-25 06:45:00,62.2,55.3,29.88,NE,40,1.0,2.0,78,0.00,CLR,,0.00,WeatherDisplay:10.37,2013-07-25 10:45:00,
2013-07-25 06:50:00,62.1,55.1,29.88,ENE,78,1.0,1.0,78,0.00,CLR,,0.00,WeatherDisplay:10.37,2013-07-25 10:50:00,
2013-07-25 07:00:00,62.1,55.1,29.88,South,183,0.0,0.0,78,0.00,CLR,,0.00,WeatherDisplay:10.37,2013-07-25 11:00:00,
2013-07-25 07:05:00,61.9,54.9,29.88,SSW,210,0.0,1.0,78,0.00,CLR,,0.00,WeatherDisplay:10.37,2013-07-25 11:05:00,
2013-07-25 07:10:00,61.9,55.3,29.88,South,185,0.0,1.0,79,0.00,CLR,,0.00,WeatherDisplay:10.37,2013-07-25 11:10:00,
2013-07-25 07:20:00,61.7,55.1,29.88,East,101,0.0,0.0,79,0.00,CLR,,0.00,WeatherDisplay:10.37,2013-07-25 11:20:00,
2013-07-25 07:25:00,61.7,55.1,29.88,SE,126,0.0,1.0,79,0.00,CLR,,0.00,WeatherDisplay:10.37,2013-07-25 11:25:00,
2013-07-25 07:30:00,61.7,55.1,29.88,ESE,104,1.0,1.0,79,0.00,CLR,,0.00,WeatherDisplay:10.37,2013-07-25 11:30:00,
2013-07-25 07:35:00,61.7,55.1,29.88,ESE,110,0.0,2.0,79,0.00,CLR,,0.00,WeatherDisplay:10.37,2013-07-25 11:35:00,
2013-07-25 07:40:00,61.7,55.1,29.88,NE,39,2.0,4.0,79,0.00,CLR,,0.00,WeatherDisplay:10.37,2013-07-25 11:40:00,
2013-07-25 07:45:00,61.7,55.1,29.88,NW,323,0.0,2.0,79,0.00,CLR,,0.00,WeatherDisplay:10.37,2013-07-25 11:45:00,
2013-07-25 07:50:00,61.7,55.1,29.88,East,81,0.0,1.0,79,0.00,CLR,,0.00,WeatherDisplay:10.37,2013-07-25 11:50:00,
2013-07-25 07:55:00,61.7,55.1,29.88,SE,143,1.0,1.0,79,0.00,CLR,,0.00,WeatherDisplay:10.37,2013-07-25 11:55:00,
2013-07-25 08:00:00,61.7,55.1,29.88,South,183,0.0,2.0,79,0.00,CLR,,0.00,WeatherDisplay:10.37,2013-07-25 12:00:00,
2013-07-25 08:05:00,61.7,55.1,29.88,SSW,210,0.0,1.0,79,0.00,CLR,,0.00,WeatherDisplay:10.37,2013-07-25 12:05:00,
2013-07-25 08:15:00,61.7,55.1,29.91,SSE,154,0.0,0.0,79,0.00,CLR,,0.00,WeatherDisplay:10.37,2013-07-25 12:15:00,
2013-07-25 08:20:00,61.7,55.1,29.91,ESE,119,0.0,0.0,79,0.00,CLR,,0.00,WeatherDisplay:10.37,2013-07-25 12:20:00,
2013-07-25 08:25:00,61.7,55.1,29.91,ESE,119,0.0,0.0,79,0.00,CLR,,0.00,WeatherDisplay:10.37,2013-07-25 12:25:00,
2013-07-25 08:30:00,61.7,55.1,29.91,East,94,0.0,0.0,79,0.00,CLR,,0.00,WeatherDisplay:10.37,2013-07-25 12:30:00,
2013-07-25 08:40:00,61.3,55.1,29.91,NW,326,0.0,0.0,80,0.00,CLR,,0.00,WeatherDisplay:10.37,2013-07-25 12:40:00,
2013-07-25 08:50:00,61.2,55.3,29.91,SSE,158,0.0,0.0,81,0.00,CLR,,0.00,WeatherDisplay:10.37,2013-07-25 12:50:00,
2013-07-25 08:55:00,61.0,55.1,29.91,South,173,0.0,0.0,81,0.00,CLR,,0.00,WeatherDisplay:10.37,2013-07-25 12:55:00,
2013-07-25 09:00:00,60.8,55.3,29.91,SSE,152,0.0,0.0,82,0.00,CLR,,0.00,WeatherDisplay:10.37,2013-07-25 13:00:00,
2013-07-25 09:05:00,60.8,55.3,29.91,SE,133,0.0,0.0,82,0.00,CLR,,0.00,WeatherDisplay:10.37,2013-07-25 13:05:00,
2013-07-25 09:10:00,60.6,55.4,29.91,ESE,111,0.0,1.0,83,0.00,CLR,,0.00,WeatherDisplay:10.37,2013-07-25 13:10:00,
2013-07-25 09:15:00,60.6,55.4,29.91,ESE,116,0.0,0.0,83,0.00,CLR,,0.00,WeatherDisplay:10.37,2013-07-25 13:15:00,
2013-07-25 09:20:00,60.6,55.4,29.91,SE,128,1.0,1.0,83,0.00,CLR,,0.00,WeatherDisplay:10.37,2013-07-25 13:20:00,
2013-07-25 09:25:00,60.6,55.4,29.91,SE,130,0.0,0.0,83,0.00,CLR,,0.00,WeatherDisplay:10.37,2013-07-25 13:25:00,
2013-07-25 09:30:00,60.6,55.4,29.91,South,180,0.0,1.0,83,0.00,CLR,,0.00,WeatherDisplay:10.37,2013-07-25 13:30:00,
2013-07-25 09:35:00,60.6,55.4,29.91,SSW,197,0.0,0.0,83,0.00,CLR,,0.00,WeatherDisplay:10.37,2013-07-25 13:35:00,
2013-07-25 09:40:00,60.6,55.4,29.91,South,184,1.0,2.0,83,0.00,CLR,,0.00,WeatherDisplay:10.37,2013-07-25 13:40:00,
2013-07-25 09:50:00,60.4,55.6,29.91,South,171,0.0,0.0,84,0.00,CLR,,0.00,WeatherDisplay:10.37,2013-07-25 13:50:00,
2013-07-25 09:55:00,60.3,55.4,29.93,South,179,0.0,0.0,84,0.00,CLR,,0.00,WeatherDisplay:10.37,2013-07-25 13:55:00,
2013-07-25 10:00:00,60.3,55.4,29.94,SSE,163,0.0,0.0,84,0.00,CLR,,0.00,WeatherDisplay:10.37,2013-07-25 14:00:00,
2013-07-25 10:05:00,60.1,55.6,29.94,SSE,151,0.0,0.0,85,0.04,RA,,0.04,WeatherDisplay:10.37,2013-07-25 14:05:00,
2013-07-25 10:10:00,59.9,55.7,29.94,SE,140,0.0,0.0,86,0.00,RA,,0.04,WeatherDisplay:10.37,2013-07-25 14:10:00,
2013-07-25 10:15:00,59.9,55.7,29.94,East,101,0.0,1.0,86,0.00,,,0.04,WeatherDisplay:10.37,2013-07-25 14:15:00,
2013-07-25 10:20:00,59.7,55.8,29.94,East,81,0.0,1.0,87,0.00,CLR,,0.04,WeatherDisplay:10.37,2013-07-25 14:20:00,
2013-07-25 10:25:00,59.5,56.3,29.94,ESE,121,0.0,0.0,89,0.04,RA,,0.08,WeatherDisplay:10.37,2013-07-25 14:25:00,
2013-07-25 10:30:00,59.5,56.6,29.94,SSE,168,0.0,0.0,90,0.00,RA,,0.08,WeatherDisplay:10.37,2013-07-25 14:30:00,
2013-07-25 10:35:00,59.5,56.6,29.94,SSE,156,0.0,0.0,90,0.00,CLR,,0.08,WeatherDisplay:10.37,2013-07-25 14:35:00,
2013-07-25 10:40:00,59.5,56.6,29.94,SSE,152,0.0,0.0,90,0.04,RA,,0.12,WeatherDisplay:10.37,2013-07-25 14:40:00,
2013-07-25 10:45:00,59.5,56.9,29.94,SSE,162,0.0,0.0,91,0.00,RA,,0.12,WeatherDisplay:10.37,2013-07-25 14:45:00,
2013-07-25 10:50:00,59.5,56.9,29.94,SE,140,1.0,1.0,91,0.00,CLR,,0.12,WeatherDisplay:10.37,2013-07-25 14:50:00,
2013-07-25 10:55:00,59.5,56.9,29.94,ESE,120,0.0,1.0,91,0.04,RA,,0.16,WeatherDisplay:10.37,2013-07-25 14:55:00,
2013-07-25 11:00:00,59.4,57.1,29.94,ESE,115,0.0,0.0,92,0.00,RA,,0.16,WeatherDisplay:10.37,2013-07-25 15:00:00,
2013-07-25 11:05:00,59.5,57.2,29.94,East,94,0.0,0.0,92,0.00,CLR,,0.16,WeatherDisplay:10.37,2013-07-25 15:05:00,
2013-07-25 11:10:00,59.7,57.4,29.94,ESE,105,1.0,2.0,92,0.00,CLR,,0.16,WeatherDisplay:10.37,2013-07-25 15:10:00,
2013-07-25 11:15:00,59.9,57.9,29.94,NNE,14,0.0,2.0,93,0.00,CLR,,0.16,WeatherDisplay:10.37,2013-07-25 15:15:00,
2013-07-25 11:20:00,59.9,57.9,29.94,SW,229,0.0,0.0,93,0.00,CLR,,0.16,WeatherDisplay:10.37,2013-07-25 15:20:00,
2013-07-25 11:25:00,59.9,57.9,29.94,WNW,284,0.0,0.0,93,0.00,CLR,,0.16,WeatherDisplay:10.37,2013-07-25 15:25:00,
2013-07-25 11:30:00,59.9,57.9,29.94,NNE,27,0.0,2.0,93,0.00,CLR,,0.16,WeatherDisplay:10.37,2013-07-25 15:30:00,
2013-07-25 11:35:00,59.9,57.9,29.94,NNW,342,0.0,1.0,93,0.00,CLR,,0.16,WeatherDisplay:10.37,2013-07-25 15:35:00,
2013-07-25 11:40:00,59.7,58.0,29.94,SE,144,0.0,1.0,94,0.00,CLR,,0.16,WeatherDisplay:10.37,2013-07-25 15:40:00,
2013-07-25 11:45:00,59.7,58.0,29.94,SE,143,0.0,0.0,94,0.04,RA,,0.20,WeatherDisplay:10.37,2013-07-25 15:45:00,
2013-07-25 11:50:00,59.5,57.8,29.94,SSE,150,0.0,1.0,94,0.00,RA,,0.20,WeatherDisplay:10.37,2013-07-25 15:50:00,
2013-07-25 11:55:00,59.5,57.8,29.94,NE,41,0.0,1.0,94,0.05,RA,,0.25,WeatherDisplay:10.37,2013-07-25 15:55:00,
2013-07-25 12:00:00,59.4,57.6,29.94,NNE,23,0.0,1.0,94,0.00,RA,,0.25,WeatherDisplay:10.37,2013-07-25 16:00:00,
2013-07-25 12:05:00,59.4,57.6,29.94,ENE,66,0.0,1.0,94,0.00,CLR,,0.25,WeatherDisplay:10.37,2013-07-25 16:05:00,
2013-07-25 12:10:00,59.4,57.6,29.94,SSW,209,1.0,1.0,94,0.04,RA,,0.29,WeatherDisplay:10.37,2013-07-25 16:10:00,
2013-07-25 12:15:00,59.4,57.9,29.94,SSW,196,0.0,1.0,95,0.00,RA,,0.29,WeatherDisplay:10.37,2013-07-25 16:15:00,
2013-07-25 12:20:00,59.4,57.9,29.94,South,180,0.0,1.0,95,0.04,RA,,0.33,WeatherDisplay:10.37,2013-07-25 16:20:00,
2013-07-25 12:25:00,59.2,57.8,29.96,WSW,244,0.0,2.0,95,0.00,RA,,0.33,WeatherDisplay:10.37,2013-07-25 16:25:00,
2013-07-25 12:30:00,59.2,57.7,29.97,East,89,1.0,2.0,95,0.00,,,0.33,WeatherDisplay:10.37,2013-07-25 16:30:00,
2013-07-25 12:35:00,59.2,57.7,29.97,ESE,106,0.0,2.0,95,0.00,CLR,,0.37,WeatherDisplay:10.37,2013-07-25 16:35:00,
2013-07-25 12:40:00,59.2,57.7,29.95,SSE,163,0.0,0.0,95,0.04,RA,,0.37,WeatherDisplay:10.37,2013-07-25 16:40:00,
2013-07-25 12:45:00,59.2,57.7,29.94,South,177,1.0,1.0,95,0.04,RA,,0.41,WeatherDisplay:10.37,2013-07-25 16:45:00,
2013-07-25 12:50:00,59.0,57.6,29.94,South,172,1.0,1.0,95,0.00,RA,,0.41,WeatherDisplay:10.37,2013-07-25 16:50:00,
2013-07-25 13:00:00,59.2,57.7,29.94,SSE,161,0.0,1.0,95,0.00,RA,,0.46,WeatherDisplay:10.37,2013-07-25 17:00:00,
2013-07-25 13:05:00,59.2,57.7,29.94,ESE,122,0.0,1.0,95,0.00,,,0.46,WeatherDisplay:10.37,2013-07-25 17:05:00,
2013-07-25 13:10:00,59.2,58.0,29.94,ENE,76,0.0,1.0,96,0.03,RA,,0.49,WeatherDisplay:10.37,2013-07-25 17:10:00,
2013-07-25 13:15:00,59.2,58.0,29.94,ESE,104,0.0,1.0,96,0.00,RA,,0.49,WeatherDisplay:10.37,2013-07-25 17:15:00,
2013-07-25 13:20:00,59.2,58.0,29.94,SE,141,0.0,1.0,96,0.05,RA,,0.54,WeatherDisplay:10.37,2013-07-25 17:20:00,
2013-07-25 13:25:00,59.2,58.0,29.94,East,93,1.0,2.0,96,0.00,RA,,0.54,WeatherDisplay:10.37,2013-07-25 17:25:00,
2013-07-25 13:30:00,59.2,58.0,29.94,NNE,12,1.0,2.0,96,0.00,CLR,,0.54,WeatherDisplay:10.37,2013-07-25 17:30:00,
2013-07-25 13:35:00,59.4,58.2,29.94,SW,234,0.0,1.0,96,0.00,CLR,,0.54,WeatherDisplay:10.37,2013-07-25 17:35:00,
2013-07-25 13:40:00,59.4,58.2,29.94,West,260,0.0,1.0,96,0.00,CLR,,0.54,WeatherDisplay:10.37,2013-07-25 17:40:00,
2013-07-25 13:50:00,59.5,58.4,29.94,SSW,195,0.0,0.0,96,0.00,CLR,,0.54,WeatherDisplay:10.37,2013-07-25 17:50:00,
2013-07-25 14:00:00,59.7,58.9,29.94,SSW,206,0.0,0.0,97,0.00,CLR,,0.54,WeatherDisplay:10.37,2013-07-25 18:00:00,
2013-07-25 14:05:00,59.7,58.9,29.94,South,175,0.0,1.0,97,0.00,CLR,,0.54,WeatherDisplay:10.37,2013-07-25 18:05:00,
2013-07-25 14:10:00,59.7,58.9,29.94,East,92,0.0,1.0,97,0.00,CLR,,0.54,WeatherDisplay:10.37,2013-07-25 18:10:00,
2013-07-25 14:15:00,59.7,58.9,29.94,East,100,0.0,0.0,97,0.00,CLR,,0.54,WeatherDisplay:10.37,2013-07-25 18:15:00,
2013-07-25 14:20:00,59.7,58.9,29.94,SE,136,0.0,1.0,97,0.00,CLR,,0.54,WeatherDisplay:10.37,2013-07-25 18:20:00,
2013-07-25 14:25:00,59.7,58.9,29.94,East,84,0.0,1.0,97,0.00,CLR,,0.54,WeatherDisplay:10.37,2013-07-25 18:25:00,
2013-07-25 14:30:00,59.7,58.9,29.94,East,87,0.0,1.0,97,0.00,CLR,,0.54,WeatherDisplay:10.37,2013-07-25 18:30:00,
2013-07-25 14:35:00,59.7,58.9,29.94,East,82,0.0,1.0,97,0.00,CLR,,0.54,WeatherDisplay:10.37,2013-07-25 18:35:00,
2013-07-25 14:45:00,59.7,58.9,29.94,East,81,1.0,1.0,97,0.00,CLR,,0.54,WeatherDisplay:10.37,2013-07-25 18:45:00,
2013-07-25 14:50:00,59.7,58.9,29.94,South,184,1.0,2.0,97,0.00,CLR,,0.54,WeatherDisplay:10.37,2013-07-25 18:50:00,
2013-07-25 15:00:00,60.0,59.1,29.94,ESE,121,0.0,2.0,97,0.00,CLR,,0.54,WeatherDisplay:10.37,2013-07-25 19:00:00,
2013-07-25 15:05:00,60.1,59.2,29.94,ESE,102,0.0,1.0,97,0.00,CLR,,0.54,WeatherDisplay:10.37,2013-07-25 19:05:00,
2013-07-25 15:10:00,60.3,59.4,29.94,East,92,0.0,0.0,97,0.00,CLR,,0.54,WeatherDisplay:10.37,2013-07-25 19:10:00,
2013-07-25 15:15:00,60.4,59.6,29.94,East,100,2.0,2.0,97,0.00,CLR,,0.54,WeatherDisplay:10.37,2013-07-25 19:15:00,
2013-07-25 15:20:00,60.6,59.8,29.94,East,88,0.0,0.0,97,0.00,CLR,,0.54,WeatherDisplay:10.37,2013-07-25 19:20:00,
2013-07-25 15:30:00,60.8,59.9,29.94,ENE,68,2.0,2.0,97,0.00,CLR,,0.54,WeatherDisplay:10.37,2013-07-25 19:30:00,
2013-07-25 15:35:00,60.8,59.9,29.94,NE,44,0.0,2.0,97,0.00,CLR,,0.54,WeatherDisplay:10.37,2013-07-25 19:35:00,
2013-07-25 15:40:00,60.8,59.9,29.94,East,86,2.0,2.0,97,0.00,CLR,,0.54,WeatherDisplay:10.37,2013-07-25 19:40:00,
2013-07-25 15:45:00,61.0,60.1,29.94,East,100,0.0,2.0,97,0.00,CLR,,0.54,WeatherDisplay:10.37,2013-07-25 19:45:00,
2013-07-25 15:50:00,61.0,60.1,29.94,SE,127,1.0,1.0,97,0.00,CLR,,0.54,WeatherDisplay:10.37,2013-07-25 19:50:00,
2013-07-25 15:55:00,61.2,60.3,29.94,SSW,196,1.0,1.0,97,0.00,CLR,,0.54,WeatherDisplay:10.37,2013-07-25 19:55:00,
2013-07-25 16:00:00,61.0,60.1,29.94,NW,312,0.0,1.0,97,0.00,CLR,,0.54,WeatherDisplay:10.37,2013-07-25 20:00:00,
2013-07-25 16:05:00,61.0,60.1,29.94,SW,220,0.0,0.0,97,0.00,CLR,,0.54,WeatherDisplay:10.37,2013-07-25 20:05:00,
2013-07-25 16:10:00,61.0,60.1,29.94,SSW,208,0.0,1.0,97,0.00,CLR,,0.54,WeatherDisplay:10.37,2013-07-25 20:10:00,
2013-07-25 16:15:00,60.8,59.9,29.94,SE,139,0.0,1.0,97,0.00,CLR,,0.54,WeatherDisplay:10.37,2013-07-25 20:15:00,
2013-07-25 16:20:00,61.0,60.1,29.94,SE,127,0.0,0.0,97,0.00,CLR,,0.54,WeatherDisplay:10.37,2013-07-25 20:20:00,
2013-07-25 16:25:00,61.0,60.1,29.94,SE,132,0.0,1.0,97,0.00,CLR,,0.54,WeatherDisplay:10.37,2013-07-25 20:25:00,
2013-07-25 16:30:00,61.0,60.1,29.94,SE,128,0.0,1.0,97,0.00,CLR,,0.54,WeatherDisplay:10.37,2013-07-25 20:30:00,
2013-07-25 16:35:00,61.0,60.4,29.94,SE,142,0.0,0.0,98,0.04,RA,,0.58,WeatherDisplay:10.37,2013-07-25 20:35:00,
2013-07-25 16:40:00,60.8,60.2,29.94,ESE,106,0.0,1.0,98,0.00,RA,,0.58,WeatherDisplay:10.37,2013-07-25 20:40:00,
2013-07-25 16:45:00,60.8,60.2,29.94,ESE,107,0.0,0.0,98,0.00,CLR,,0.58,WeatherDisplay:10.37,2013-07-25 20:45:00,
2013-07-25 16:50:00,60.8,60.2,29.94,ESE,121,1.0,2.0,98,0.00,CLR,,0.58,WeatherDisplay:10.37,2013-07-25 20:50:00,
2013-07-25 17:00:00,60.8,60.2,29.94,SE,137,1.0,1.0,98,0.04,RA,,0.62,WeatherDisplay:10.37,2013-07-25 21:00:00,
2013-07-25 17:05:00,60.6,60.1,29.94,SE,142,0.0,1.0,98,0.00,RA,,0.62,WeatherDisplay:10.37,2013-07-25 21:05:00,
2013-07-25 17:10:00,60.6,60.1,29.94,SSE,166,0.0,1.0,98,0.00,CLR,,0.62,WeatherDisplay:10.37,2013-07-25 21:10:00,
2013-07-25 17:15:00,60.6,60.1,29.94,South,169,0.0,0.0,98,0.04,RA,,0.66,WeatherDisplay:10.37,2013-07-25 21:15:00,
2013-07-25 17:20:00,60.6,60.1,29.94,SSE,148,0.0,0.0,98,0.00,RA,,0.66,WeatherDisplay:10.37,2013-07-25 21:20:00,
2013-07-25 17:25:00,60.6,60.1,29.92,SE,139,0.0,1.0,98,0.00,,,0.66,WeatherDisplay:10.37,2013-07-25 21:25:00,
2013-07-25 17:30:00,60.4,59.9,29.91,ENE,71,0.0,1.0,98,0.05,RA,,0.71,WeatherDisplay:10.37,2013-07-25 21:30:00,
2013-07-25 17:35:00,60.4,59.9,29.91,NE,42,0.0,1.0,98,0.00,RA,,0.71,WeatherDisplay:10.37,2013-07-25 21:35:00,
2013-07-25 17:40:00,60.4,59.9,29.93,ESE,122,0.0,1.0,98,0.00,CLR,,0.71,WeatherDisplay:10.37,2013-07-25 21:40:00,
2013-07-25 17:45:00,60.4,59.9,29.94,ESE,107,1.0,2.0,98,0.04,RA,,0.75,WeatherDisplay:10.37,2013-07-25 21:45:00,
2013-07-25 17:50:00,60.4,59.9,29.94,NE,52,1.0,1.0,98,0.00,RA,,0.75,WeatherDisplay:10.37,2013-07-25 21:50:00,
2013-07-25 17:55:00,60.3,59.7,29.92,ENE,71,0.0,2.0,98,0.00,,,0.75,WeatherDisplay:10.37,2013-07-25 21:55:00,
2013-07-25 18:00:00,60.3,59.7,29.91,East,93,0.0,1.0,98,0.00,CLR,,0.75,WeatherDisplay:10.37,2013-07-25 22:00:00,
2013-07-25 18:05:00,60.3,59.7,29.91,ESE,114,0.0,1.0,98,0.00,CLR,,0.75,WeatherDisplay:10.37,2013-07-25 22:05:00,
2013-07-25 18:10:00,60.1,59.5,29.91,ESE,110,0.0,1.0,98,0.00,CLR,,0.75,WeatherDisplay:10.37,2013-07-25 22:10:00,
2013-07-25 18:15:00,60.1,59.5,29.91,ESE,116,1.0,2.0,98,0.04,RA,,0.79,WeatherDisplay:10.37,2013-07-25 22:15:00,
2013-07-25 18:20:00,60.1,59.5,29.91,NE,54,0.0,2.0,98,0.00,RA,,0.79,WeatherDisplay:10.37,2013-07-25 22:20:00,
2013-07-25 18:25:00,60.1,59.5,29.91,ENE,64,0.0,3.0,98,0.00,CLR,,0.79,WeatherDisplay:10.37,2013-07-25 22:25:00,
2013-07-25 18:30:00,59.9,59.3,29.91,ENE,77,1.0,1.0,98,0.00,CLR,,0.79,WeatherDisplay:10.37,2013-07-25 22:30:00,
2013-07-25 18:35:00,59.9,59.3,29.91,ENE,61,0.0,1.0,98,0.00,CLR,,0.79,WeatherDisplay:10.37,2013-07-25 22:35:00,
2013-07-25 18:40:00,59.9,59.3,29.91,East,93,1.0,2.0,98,0.00,CLR,,0.83,WeatherDisplay:10.37,2013-07-25 22:40:00,
2013-07-25 18:45:00,59.7,59.2,29.91,SE,128,0.0,1.0,98,0.04,RA,,0.83,WeatherDisplay:10.37,2013-07-25 22:45:00,
2013-07-25 18:50:00,59.7,59.2,29.91,ESE,107,2.0,2.0,98,0.00,RA,,0.83,WeatherDisplay:10.37,2013-07-25 22:50:00,
2013-07-25 18:55:00,59.6,59.1,29.91,East,80,1.0,2.0,98,0.00,CLR,,0.83,WeatherDisplay:10.37,2013-07-25 22:55:00,
2013-07-25 19:00:00,59.5,59.0,29.91,NE,34,1.0,1.0,98,0.00,CLR,,0.83,WeatherDisplay:10.37,2013-07-25 23:00:00,
2013-07-25 19:05:00,59.5,59.0,29.91,ENE,61,1.0,2.0,98,0.00,CLR,,0.83,WeatherDisplay:10.37,2013-07-25 23:05:00,
2013-07-25 19:10:00,59.5,59.0,29.91,NNE,13,2.0,3.0,98,0.00,CLR,,0.83,WeatherDisplay:10.37,2013-07-25 23:10:00,
2013-07-25 19:15:00,59.5,59.0,29.91,NW,318,0.0,1.0,98,0.00,CLR,,0.83,WeatherDisplay:10.37,2013-07-25 23:15:00,
2013-07-25 19:25:00,59.5,59.0,29.91,SE,129,0.0,2.0,98,0.00,CLR,,0.83,WeatherDisplay:10.37,2013-07-25 23:25:00,
2013-07-25 19:30:00,59.5,59.0,29.91,ESE,105,1.0,2.0,98,0.00,CLR,,0.83,WeatherDisplay:10.37,2013-07-25 23:30:00,
2013-07-25 19:35:00,59.5,59.0,29.91,East,98,0.0,2.0,98,0.00,CLR,,0.83,WeatherDisplay:10.37,2013-07-25 23:35:00,
2013-07-25 19:40:00,59.5,59.0,29.91,NE,34,1.0,3.0,98,0.00,CLR,,0.83,WeatherDisplay:10.37,2013-07-25 23:40:00,
2013-07-25 19:50:00,59.4,58.8,29.91,North,8,0.0,2.0,98,0.04,RA,,0.87,WeatherDisplay:10.37,2013-07-25 23:50:00,
2013-07-25 20:00:00,59.4,58.8,29.91,ENE,67,0.0,2.0,98,0.00,,,0.87,WeatherDisplay:10.37,2013-07-26 00:00:00,
2013-07-25 20:05:00,59.4,58.8,29.91,NE,53,0.0,2.0,98,0.00,CLR,,0.87,WeatherDisplay:10.37,2013-07-26 00:05:00,
2013-07-25 20:10:00,59.4,58.8,29.91,NW,326,1.0,2.0,98,0.00,CLR,,0.87,WeatherDisplay:10.37,2013-07-26 00:10:00,
2013-07-25 20:15:00,59.4,58.8,29.91,SW,226,0.0,2.0,98,0.00,CLR,,0.87,WeatherDisplay:10.37,2013-07-26 00:15:00,
2013-07-25 20:20:00,59.2,58.6,29.91,East,99,0.0,1.0,98,0.00,CLR,,0.87,WeatherDisplay:10.37,2013-07-26 00:20:00,
2013-07-25 20:25:00,59.2,58.6,29.91,ENE,65,0.0,1.0,98,0.00,CLR,,0.87,WeatherDisplay:10.37,2013-07-26 00:25:00,
2013-07-25 20:30:00,59.2,58.6,29.91,East,100,0.0,0.0,98,0.00,CLR,,0.87,WeatherDisplay:10.37,2013-07-26 00:30:00,
2013-07-25 20:35:00,59.2,58.6,29.91,SSW,203,0.0,1.0,98,0.00,CLR,,0.87,WeatherDisplay:10.37,2013-07-26 00:35:00,
2013-07-25 20:40:00,59.4,58.8,29.91,SSW,206,0.0,0.0,98,0.00,CLR,,0.87,WeatherDisplay:10.37,2013-07-26 00:40:00,
2013-07-25 20:45:00,59.4,58.8,29.91,SSE,162,0.0,1.0,98,0.00,CLR,,0.87,WeatherDisplay:10.37,2013-07-26 00:45:00,
2013-07-25 20:50:00,59.4,58.8,29.91,ENE,74,0.0,1.0,98,0.00,CLR,,0.87,WeatherDisplay:10.37,2013-07-26 00:50:00,
2013-07-25 20:55:00,59.2,58.6,29.91,ENE,71,0.0,0.0,98,0.00,CLR,,0.87,WeatherDisplay:10.37,2013-07-26 00:55:00,
2013-07-25 21:00:00,59.2,58.6,29.91,ESE,121,0.0,0.0,98,0.00,CLR,,0.87,WeatherDisplay:10.37,2013-07-26 01:00:00,
2013-07-25 21:05:00,59.2,58.6,29.91,ESE,114,1.0,2.0,98,0.00,CLR,,0.87,WeatherDisplay:10.37,2013-07-26 01:05:00,
2013-07-25 21:10:00,59.2,58.6,29.91,ESE,110,0.0,2.0,98,0.00,CLR,,0.87,WeatherDisplay:10.37,2013-07-26 01:10:00,
2013-07-25 21:15:00,59.4,58.8,29.91,ENE,78,1.0,1.0,98,0.00,CLR,,0.87,WeatherDisplay:10.37,2013-07-26 01:15:00,
2013-07-25 21:20:00,59.2,58.6,29.91,East,85,0.0,1.0,98,0.00,CLR,,0.87,WeatherDisplay:10.37,2013-07-26 01:20:00,
2013-07-25 21:25:00,59.2,58.6,29.91,East,80,0.0,1.0,98,0.00,CLR,,0.87,WeatherDisplay:10.37,2013-07-26 01:25:00,
2013-07-25 21:30:00,59.2,58.6,29.91,ENE,71,0.0,1.0,98,0.00,CLR,,0.87,WeatherDisplay:10.37,2013-07-26 01:30:00,
2013-07-25 21:35:00,59.2,58.6,29.91,East,84,1.0,1.0,98,0.00,CLR,,0.87,WeatherDisplay:10.37,2013-07-26 01:35:00,
2013-07-25 21:40:00,59.2,58.6,29.91,ENE,71,0.0,2.0,98,0.00,CLR,,0.87,WeatherDisplay:10.37,2013-07-26 01:40:00,
2013-07-25 21:45:00,59.2,58.6,29.91,ENE,70,0.0,1.0,98,0.00,CLR,,0.87,WeatherDisplay:10.37,2013-07-26 01:45:00,
2013-07-25 21:50:00,59.2,58.6,29.91,ENE,62,1.0,1.0,98,0.00,CLR,,0.87,WeatherDisplay:10.37,2013-07-26 01:50:00,
2013-07-25 21:55:00,59.2,58.6,29.91,NE,45,0.0,1.0,98,0.00,CLR,,0.87,WeatherDisplay:10.37,2013-07-26 01:55:00,
2013-07-25 22:00:00,59.2,58.6,29.91,ENE,74,0.0,1.0,98,0.00,CLR,,0.87,WeatherDisplay:10.37,2013-07-26 02:00:00,
2013-07-25 22:10:00,59.2,58.6,29.91,ESE,113,1.0,1.0,98,0.00,CLR,,0.87,WeatherDisplay:10.37,2013-07-26 02:10:00,
2013-07-25 22:15:00,59.2,58.6,29.91,ESE,113,1.0,2.0,98,0.00,CLR,,0.87,WeatherDisplay:10.37,2013-07-26 02:15:00,
2013-07-25 22:20:00,59.2,58.6,29.91,SE,128,0.0,2.0,98,0.00,CLR,,0.87,WeatherDisplay:10.37,2013-07-26 02:20:00,
2013-07-25 22:30:00,59.0,58.4,29.91,East,101,0.0,1.0,98,0.00,CLR,,0.87,WeatherDisplay:10.37,2013-07-26 02:30:00,
2013-07-25 22:35:00,59.0,58.4,29.91,ENE,71,0.0,1.0,98,0.00,CLR,,0.87,WeatherDisplay:10.37,2013-07-26 02:35:00,
2013-07-25 22:40:00,59.0,58.4,29.91,East,92,0.0,0.0,98,0.00,CLR,,0.87,WeatherDisplay:10.37,2013-07-26 02:40:00,
2013-07-25 22:45:00,59.0,58.4,29.91,SSE,152,0.0,1.0,98,0.00,CLR,,0.87,WeatherDisplay:10.37,2013-07-26 02:45:00,
2013-07-25 22:50:00,59.0,58.4,29.91,South,180,0.0,2.0,98,0.00,CLR,,0.87,WeatherDisplay:10.37,2013-07-26 02:50:00,
2013-07-25 22:55:00,59.0,58.4,29.91,SSW,196,0.0,1.0,98,0.00,CLR,,0.87,WeatherDisplay:10.37,2013-07-26 02:55:00,
2013-07-25 23:00:00,59.2,58.6,29.91,SSW,202,0.0,1.0,98,0.00,CLR,,0.87,WeatherDisplay:10.37,2013-07-26 03:00:00,
2013-07-25 23:05:00,59.0,58.4,29.91,SE,134,0.0,1.0,98,0.00,CLR,,0.87,WeatherDisplay:10.37,2013-07-26 03:05:00,
2013-07-25 23:10:00,59.0,58.4,29.91,SE,126,0.0,1.0,98,0.00,CLR,,0.87,WeatherDisplay:10.37,2013-07-26 03:10:00,
2013-07-25 23:15:00,59.2,58.6,29.91,ESE,114,0.0,1.0,98,0.00,CLR,,0.87,WeatherDisplay:10.37,2013-07-26 03:15:00,
2013-07-25 23:20:00,59.0,58.4,29.91,East,99,0.0,1.0,98,0.00,CLR,,0.87,WeatherDisplay:10.37,2013-07-26 03:20:00,
2013-07-25 23:25:00,59.0,58.4,29.91,ESE,116,0.0,1.0,98,0.00,CLR,,0.87,WeatherDisplay:10.37,2013-07-26 03:25:00,
2013-07-25 23:30:00,59.0,58.4,29.91,South,187,0.0,1.0,98,0.00,CLR,,0.87,WeatherDisplay:10.37,2013-07-26 03:30:00,
2013-07-25 23:35:00,59.2,58.6,29.91,SW,223,1.0,1.0,98,0.00,CLR,,0.87,WeatherDisplay:10.37,2013-07-26 03:35:00,
2013-07-25 23:40:00,59.2,58.6,29.91,SW,219,0.0,1.0,98,0.00,CLR,,0.87,WeatherDisplay:10.37,2013-07-26 03:40:00,
2013-07-25 23:50:00,59.2,58.6,29.91,NE,40,0.0,0.0,98,0.00,CLR,,0.87,WeatherDisplay:10.37,2013-07-26 03:50:00,
2013-07-25 23:55:00,59.2,58.6,29.90,SE,124,0.0,0.0,98,0.00,CLR,,0.87,WeatherDisplay:10.37,2013-07-26 03:55:00,